Tropical Cyclones
[Index]
Main Index Home Page Stock Weather Photos Extreme Storms Discussion Storm News and Storm Chasing Reports Tropical Cyclones / Hurricanes / Typhoons Weather Data and Links Wild Fires / Bushfires Weather Observation Techniques Weather Picture Catalogue Tornado Pictures and Reports Stock Video Footage and DVDs for sale
Season 2006-2007 Tropical Cyclone ODETTE Track Map
Season 2006-2007 Summaries (Operational Data): [AU] [SIO] [SPAC] [SH]
<<- Previous TC | 2006-2007 Season | Next TC ->>

click for intensity scale information  Lat/long Grid: Show Hide

 Date Labels: Show Hide

Operational Tropical Cyclone Data : BoM Warnings

Name: ODETTE
Number: 07P1

26 Feb 2007 17:00 UTC to 07 Mar 2007 00:00 UTC

    date/time    lat    long     hPa   cat  kts
2007-02-26 17   12.7   153.8    1000         30          
2007-02-27 00   14.5   153.0     998         30          
2007-02-27 06   14.0   152.5     998         30          
2007-02-27 12   14.5   153.1     998         30          
2007-02-27 18   14.5   152.5     998         30          
2007-02-28 00   15.0   152.5     998         30          
2007-02-28 05   16.2   153.0     998         30          
2007-02-28 12   16.1   154.0     999         30          
2007-02-28 18   16.0   154.0     998         30          
2007-02-28 22   16.5   154.0     998         30          
2007-03-01 01   17.6   152.6     998         30          
2007-03-01 05   17.6   152.0     998         30          
2007-03-01 12   17.5   151.4     996         30          
2007-03-01 18   17.3   151.2     993         30          
2007-03-02 00   17.3   151.2     993         30          
2007-03-02 06   16.7   151.1     995         30          
2007-03-02 12   16.8   152.5     996         30          
2007-03-02 18   17.2   153.3     996         30          
2007-03-03 00   16.6   154.8     991    1    35          
2007-03-03 06   17.0   154.7     992    1    35          
2007-03-03 12   17.2   155.0     992    1    35          
2007-03-03 18   17.0   156.0     992    1    35          
2007-03-04 00   16.3   155.4     990    1    35          
2007-03-04 06   16.2   155.5     996         30          
2007-03-04 12   16.3   155.5     996         30          
2007-03-04 18   16.2   155.6     996         30          
2007-03-05 00   16.1   155.6     996         30          
2007-03-05 06   16.1   156.0     996         30          
2007-03-05 12   15.2   156.0     998         30          
2007-03-06 01   16.4   158.1     997         30          
2007-03-06 06   16.8   158.5     995         30          
2007-03-06 12   17.4   158.5     995         30          
2007-03-06 18   17.0   159.0     995         30          
2007-03-07 00   16.6   159.4     997         30          
Winds are 10-min average.

Tropical cyclone tracks developed by Michael Bath using operational warnings and advisories and Google Maps.


[Australian Severe Weather index] [Copyright Notice] [Email Contacts] [Search This Site] [Privacy Policy]
Document: tropical_cyclone_odette.htm Updated: 28 May 2013